Petrified Forest Natl Pk, Arizona
Current Conditions -  °F | °C
As of 4:54 PM on Sunday 25 Jan 2015 (Local Time) from KSJN Reporting Station
Clear Clear  
Wind Chill: 53°   Ceiling: Unl
Heat Index: 53°   Visibility: 10mi
Dew Point: 19°   Wind: 3mph
Humidity: 26%   Direction: 300°WNW
Pressure: 30.26"   Gusts: NA
Location:  34.7916°N, 109.878°W
Report Text: KSJN 252354Z AUTO 30003KT 10SM CLR 12/M07 A3026 RMK AO2 SLP230 T01171072 10122 20056 56004
Loading
Personal Weather Stations






























Interactive Weather Map New forecast layout! Learn more

10-Day Weather Forecast

Advertisements
Track Severe Weather on mobile